sensor_id;sensor_type;location;lat;lon;timestamp;temperature;humidity
11047;DHT22;5576;50.008;10.596;2024-01-30T00:01:15;2.90;99.90
11047;DHT22;5576;50.008;10.596;2024-01-30T00:03:41;2.70;99.90
11047;DHT22;5576;50.008;10.596;2024-01-30T00:06:08;2.50;99.90
11047;DHT22;5576;50.008;10.596;2024-01-30T00:08:34;2.60;99.90
11047;DHT22;5576;50.008;10.596;2024-01-30T00:10:59;2.60;99.90
11047;DHT22;5576;50.008;10.596;2024-01-30T00:13:26;2.60;99.90
11047;DHT22;5576;50.008;10.596;2024-01-30T00:15:52;6.20;99.90
11047;DHT22;5576;50.008;10.596;2024-01-30T00:18:18;2.50;99.90
11047;DHT22;5576;50.008;10.596;2024-01-30T00:20:44;2.50;99.90
11047;DHT22;5576;50.008;10.596;2024-01-30T00:23:10;2.50;99.90
11047;DHT22;5576;50.008;10.596;2024-01-30T00:25:35;2.60;99.90
11047;DHT22;5576;50.008;10.596;2024-01-30T00:28:01;2.70;99.90
11047;DHT22;5576;50.008;10.596;2024-01-30T00:30:27;1.80;99.90
11047;DHT22;5576;50.008;10.596;2024-01-30T00:32:54;2.50;99.90
11047;DHT22;5576;50.008;10.596;2024-01-30T00:35:20;2.50;99.90
11047;DHT22;5576;50.008;10.596;2024-01-30T00:37:48;2.60;99.90
11047;DHT22;5576;50.008;10.596;2024-01-30T00:40:13;2.60;99.90
11047;DHT22;5576;50.008;10.596;2024-01-30T00:42:42;2.60;99.90
11047;DHT22;5576;50.008;10.596;2024-01-30T00:45:16;2.70;99.90
11047;DHT22;5576;50.008;10.596;2024-01-30T00:47:42;2.60;99.90
11047;DHT22;5576;50.008;10.596;2024-01-30T00:50:08;2.70;99.90
11047;DHT22;5576;50.008;10.596;2024-01-30T00:52:34;2.60;99.90
11047;DHT22;5576;50.008;10.596;2024-01-30T00:55:00;1.00;99.90
11047;DHT22;5576;50.008;10.596;2024-01-30T00:57:25;2.70;99.90
11047;DHT22;5576;50.008;10.596;2024-01-30T01:02:18;2.80;99.90
11047;DHT22;5576;50.008;10.596;2024-01-30T01:04:44;2.70;99.90
11047;DHT22;5576;50.008;10.596;2024-01-30T01:07:11;2.90;99.90
11047;DHT22;5576;50.008;10.596;2024-01-30T01:09:37;2.90;99.90
11047;DHT22;5576;50.008;10.596;2024-01-30T01:12:03;2.90;99.90
11047;DHT22;5576;50.008;10.596;2024-01-30T01:14:29;2.90;99.90
11047;DHT22;5576;50.008;10.596;2024-01-30T01:16:55;2.60;99.90
11047;DHT22;5576;50.008;10.596;2024-01-30T01:19:21;2.50;99.90
11047;DHT22;5576;50.008;10.596;2024-01-30T01:21:47;2.30;99.90
11047;DHT22;5576;50.008;10.596;2024-01-30T01:24:13;2.30;99.90
11047;DHT22;5576;50.008;10.596;2024-01-30T01:26:39;2.10;99.90
11047;DHT22;5576;50.008;10.596;2024-01-30T01:29:06;2.10;99.90
11047;DHT22;5576;50.008;10.596;2024-01-30T01:31:36;2.70;99.90
11047;DHT22;5576;50.008;10.596;2024-01-30T01:34:06;2.30;99.90
11047;DHT22;5576;50.008;10.596;2024-01-30T01:36:31;6.00;99.90
11047;DHT22;5576;50.008;10.596;2024-01-30T01:38:57;2.50;99.90
11047;DHT22;5576;50.008;10.596;2024-01-30T01:41:23;2.70;99.90
11047;DHT22;5576;50.008;10.596;2024-01-30T01:43:48;3.10;99.90
11047;DHT22;5576;50.008;10.596;2024-01-30T01:46:14;3.20;99.90
11047;DHT22;5576;50.008;10.596;2024-01-30T01:48:41;3.30;99.90
11047;DHT22;5576;50.008;10.596;2024-01-30T01:53:35;3.30;99.90
11047;DHT22;5576;50.008;10.596;2024-01-30T01:56:01;3.20;99.90
11047;DHT22;5576;50.008;10.596;2024-01-30T01:58:27;3.30;99.90
11047;DHT22;5576;50.008;10.596;2024-01-30T02:03:21;2.90;99.90
11047;DHT22;5576;50.008;10.596;2024-01-30T02:08:13;3.10;99.90
11047;DHT22;5576;50.008;10.596;2024-01-30T02:10:39;3.00;99.90
11047;DHT22;5576;50.008;10.596;2024-01-30T02:13:04;3.00;99.90
11047;DHT22;5576;50.008;10.596;2024-01-30T02:15:30;2.80;99.90
11047;DHT22;5576;50.008;10.596;2024-01-30T02:17:56;2.70;99.90
11047;DHT22;5576;50.008;10.596;2024-01-30T02:22:49;4.70;99.90
11047;DHT22;5576;50.008;10.596;2024-01-30T02:25:16;4.20;99.90
11047;DHT22;5576;50.008;10.596;2024-01-30T02:27:42;2.60;99.90
11047;DHT22;5576;50.008;10.596;2024-01-30T02:37:26;2.60;99.90
11047;DHT22;5576;50.008;10.596;2024-01-30T02:44:44;4.60;99.90
11047;DHT22;5576;50.008;10.596;2024-01-30T02:49:36;1.00;99.90
11047;DHT22;5576;50.008;10.596;2024-01-30T02:52:03;2.10;99.90
11047;DHT22;5576;50.008;10.596;2024-01-30T02:54:28;2.00;99.90
11047;DHT22;5576;50.008;10.596;2024-01-30T02:56:56;2.00;99.90
11047;DHT22;5576;50.008;10.596;2024-01-30T02:59:21;1.90;99.90
11047;DHT22;5576;50.008;10.596;2024-01-30T03:01:47;1.80;99.90
11047;DHT22;5576;50.008;10.596;2024-01-30T03:04:13;1.70;99.90
11047;DHT22;5576;50.008;10.596;2024-01-30T03:06:44;4.70;99.90
11047;DHT22;5576;50.008;10.596;2024-01-30T03:09:09;1.60;99.90
11047;DHT22;5576;50.008;10.596;2024-01-30T03:14:02;2.00;99.90
11047;DHT22;5576;50.008;10.596;2024-01-30T03:16:28;1.60;99.90
11047;DHT22;5576;50.008;10.596;2024-01-30T03:23:47;1.50;99.90
11047;DHT22;5576;50.008;10.596;2024-01-30T03:26:12;1.50;99.90
11047;DHT22;5576;50.008;10.596;2024-01-30T03:28:40;1.40;99.90
11047;DHT22;5576;50.008;10.596;2024-01-30T03:31:06;1.30;99.90
11047;DHT22;5576;50.008;10.596;2024-01-30T03:36:03;1.30;99.90
11047;DHT22;5576;50.008;10.596;2024-01-30T03:43:21;1.00;99.90
11047;DHT22;5576;50.008;10.596;2024-01-30T03:48:13;1.20;99.90
11047;DHT22;5576;50.008;10.596;2024-01-30T03:55:36;1.30;99.90
11047;DHT22;5576;50.008;10.596;2024-01-30T03:58:02;1.40;99.90
11047;DHT22;5576;50.008;10.596;2024-01-30T04:00:28;1.50;99.90
11047;DHT22;5576;50.008;10.596;2024-01-30T04:02:54;1.50;99.90
11047;DHT22;5576;50.008;10.596;2024-01-30T04:07:46;0.80;99.90
11047;DHT22;5576;50.008;10.596;2024-01-30T04:10:11;-2.50;99.90
11047;DHT22;5576;50.008;10.596;2024-01-30T04:15:04;4.50;99.90
11047;DHT22;5576;50.008;10.596;2024-01-30T04:17:29;2.10;99.90
11047;DHT22;5576;50.008;10.596;2024-01-30T04:19:55;0.90;99.90
11047;DHT22;5576;50.008;10.596;2024-01-30T04:22:21;0.80;99.90
11047;DHT22;5576;50.008;10.596;2024-01-30T04:24:47;3.00;99.90
11047;DHT22;5576;50.008;10.596;2024-01-30T04:27:13;0.90;99.90
11047;DHT22;5576;50.008;10.596;2024-01-30T04:32:05;0.80;99.90
11047;DHT22;5576;50.008;10.596;2024-01-30T04:34:31;0.90;99.90
11047;DHT22;5576;50.008;10.596;2024-01-30T04:36:56;3.20;99.90
11047;DHT22;5576;50.008;10.596;2024-01-30T04:39:22;1.00;99.90
11047;DHT22;5576;50.008;10.596;2024-01-30T04:46:40;3.60;99.90
11047;DHT22;5576;50.008;10.596;2024-01-30T04:49:06;1.20;99.90
11047;DHT22;5576;50.008;10.596;2024-01-30T04:56:25;1.20;99.90
11047;DHT22;5576;50.008;10.596;2024-01-30T04:58:51;1.20;99.90
11047;DHT22;5576;50.008;10.596;2024-01-30T05:01:17;3.50;99.90
11047;DHT22;5576;50.008;10.596;2024-01-30T05:06:09;5.00;99.90
11047;DHT22;5576;50.008;10.596;2024-01-30T05:11:03;1.30;99.90
11047;DHT22;5576;50.008;10.596;2024-01-30T05:13:31;1.30;99.90
11047;DHT22;5576;50.008;10.596;2024-01-30T05:18:22;1.30;99.90
11047;DHT22;5576;50.008;10.596;2024-01-30T05:20:50;1.20;99.90
11047;DHT22;5576;50.008;10.596;2024-01-30T05:23:16;1.20;99.90
11047;DHT22;5576;50.008;10.596;2024-01-30T05:33:00;1.20;99.90
11047;DHT22;5576;50.008;10.596;2024-01-30T05:42:44;1.00;99.90
11047;DHT22;5576;50.008;10.596;2024-01-30T05:50:02;-0.80;99.90
11047;DHT22;5576;50.008;10.596;2024-01-30T05:54:54;1.10;99.90
11047;DHT22;5576;50.008;10.596;2024-01-30T05:57:20;2.50;99.90
11047;DHT22;5576;50.008;10.596;2024-01-30T05:59:46;1.20;99.90
11047;DHT22;5576;50.008;10.596;2024-01-30T06:02:18;1.30;99.90
11047;DHT22;5576;50.008;10.596;2024-01-30T06:04:44;1.70;99.90
11047;DHT22;5576;50.008;10.596;2024-01-30T06:07:12;1.30;99.90
11047;DHT22;5576;50.008;10.596;2024-01-30T06:09:45;1.40;99.90
11047;DHT22;5576;50.008;10.596;2024-01-30T06:12:17;1.60;99.90
11047;DHT22;5576;50.008;10.596;2024-01-30T06:14:45;1.60;99.90
11047;DHT22;5576;50.008;10.596;2024-01-30T06:17:15;3.70;99.90
11047;DHT22;5576;50.008;10.596;2024-01-30T06:20:11;1.70;99.90
11047;DHT22;5576;50.008;10.596;2024-01-30T06:25:27;2.00;99.90
11047;DHT22;5576;50.008;10.596;2024-01-30T06:28:03;2.00;99.90
11047;DHT22;5576;50.008;10.596;2024-01-30T06:30:30;2.00;99.90
11047;DHT22;5576;50.008;10.596;2024-01-30T06:32:56;2.00;99.90
11047;DHT22;5576;50.008;10.596;2024-01-30T06:35:22;4.70;99.90
11047;DHT22;5576;50.008;10.596;2024-01-30T06:37:48;3.80;99.90
11047;DHT22;5576;50.008;10.596;2024-01-30T06:40:16;2.10;99.90
11047;DHT22;5576;50.008;10.596;2024-01-30T06:42:42;2.10;99.90
11047;DHT22;5576;50.008;10.596;2024-01-30T06:47:35;4.30;99.90
11047;DHT22;5576;50.008;10.596;2024-01-30T06:50:00;2.30;99.90
11047;DHT22;5576;50.008;10.596;2024-01-30T06:52:27;1.80;99.90
11047;DHT22;5576;50.008;10.596;2024-01-30T06:54:53;1.80;99.90
11047;DHT22;5576;50.008;10.596;2024-01-30T06:57:20;1.90;99.90
11047;DHT22;5576;50.008;10.596;2024-01-30T06:59:46;2.00;99.90
11047;DHT22;5576;50.008;10.596;2024-01-30T07:02:12;2.00;99.90
11047;DHT22;5576;50.008;10.596;2024-01-30T07:04:38;2.10;99.90
11047;DHT22;5576;50.008;10.596;2024-01-30T07:07:05;2.00;99.90
11047;DHT22;5576;50.008;10.596;2024-01-30T07:09:31;1.20;99.90
11047;DHT22;5576;50.008;10.596;2024-01-30T07:11:57;2.10;99.90
11047;DHT22;5576;50.008;10.596;2024-01-30T07:14:24;2.10;99.90
11047;DHT22;5576;50.008;10.596;2024-01-30T07:16:50;3.90;99.90
11047;DHT22;5576;50.008;10.596;2024-01-30T07:19:16;2.20;99.90
11047;DHT22;5576;50.008;10.596;2024-01-30T07:21:42;2.20;99.90
11047;DHT22;5576;50.008;10.596;2024-01-30T07:26:34;2.20;99.90
11047;DHT22;5576;50.008;10.596;2024-01-30T07:29:01;2.30;99.90
11047;DHT22;5576;50.008;10.596;2024-01-30T07:31:27;2.20;99.90
11047;DHT22;5576;50.008;10.596;2024-01-30T07:33:53;2.50;99.90
11047;DHT22;5576;50.008;10.596;2024-01-30T07:36:20;-0.70;99.90
11047;DHT22;5576;50.008;10.596;2024-01-30T07:38:45;2.50;99.90
11047;DHT22;5576;50.008;10.596;2024-01-30T07:41:11;5.70;99.90
11047;DHT22;5576;50.008;10.596;2024-01-30T07:43:38;2.60;99.90
11047;DHT22;5576;50.008;10.596;2024-01-30T07:46:04;4.20;99.90
11047;DHT22;5576;50.008;10.596;2024-01-30T07:48:33;2.70;99.90
11047;DHT22;5576;50.008;10.596;2024-01-30T07:51:00;2.80;99.90
11047;DHT22;5576;50.008;10.596;2024-01-30T07:53:25;2.70;99.90
11047;DHT22;5576;50.008;10.596;2024-01-30T07:55:52;2.80;99.90
11047;DHT22;5576;50.008;10.596;2024-01-30T07:58:17;2.90;99.90
11047;DHT22;5576;50.008;10.596;2024-01-30T08:00:44;-0.60;99.90
11047;DHT22;5576;50.008;10.596;2024-01-30T08:03:10;3.00;99.90
11047;DHT22;5576;50.008;10.596;2024-01-30T08:05:36;3.00;99.90
11047;DHT22;5576;50.008;10.596;2024-01-30T08:08:02;3.00;99.90
11047;DHT22;5576;50.008;10.596;2024-01-30T08:10:28;2.90;99.90
11047;DHT22;5576;50.008;10.596;2024-01-30T08:12:53;3.10;99.90
11047;DHT22;5576;50.008;10.596;2024-01-30T08:15:19;3.10;99.90
11047;DHT22;5576;50.008;10.596;2024-01-30T08:17:45;3.00;99.90
11047;DHT22;5576;50.008;10.596;2024-01-30T08:20:11;3.10;99.90
11047;DHT22;5576;50.008;10.596;2024-01-30T08:22:39;3.10;99.90
11047;DHT22;5576;50.008;10.596;2024-01-30T08:25:06;3.20;99.90
11047;DHT22;5576;50.008;10.596;2024-01-30T08:27:32;3.30;99.90
11047;DHT22;5576;50.008;10.596;2024-01-30T08:29:58;3.30;99.90
11047;DHT22;5576;50.008;10.596;2024-01-30T08:32:23;3.30;99.90
11047;DHT22;5576;50.008;10.596;2024-01-30T08:34:49;3.30;99.90
11047;DHT22;5576;50.008;10.596;2024-01-30T08:37:15;3.30;99.90
11047;DHT22;5576;50.008;10.596;2024-01-30T08:39:43;3.30;99.90
11047;DHT22;5576;50.008;10.596;2024-01-30T08:42:09;3.40;99.90
11047;DHT22;5576;50.008;10.596;2024-01-30T08:44:34;3.40;99.90
11047;DHT22;5576;50.008;10.596;2024-01-30T08:47:00;3.50;99.90
11047;DHT22;5576;50.008;10.596;2024-01-30T08:49:27;3.40;99.90
11047;DHT22;5576;50.008;10.596;2024-01-30T08:51:53;3.40;99.90
11047;DHT22;5576;50.008;10.596;2024-01-30T08:54:19;3.40;99.90
11047;DHT22;5576;50.008;10.596;2024-01-30T08:56:45;3.50;99.90
11047;DHT22;5576;50.008;10.596;2024-01-30T08:59:10;3.40;99.90
11047;DHT22;5576;50.008;10.596;2024-01-30T09:01:36;3.50;99.90
11047;DHT22;5576;50.008;10.596;2024-01-30T09:04:02;3.50;99.90
11047;DHT22;5576;50.008;10.596;2024-01-30T09:06:28;3.50;99.90
11047;DHT22;5576;50.008;10.596;2024-01-30T09:08:54;3.60;99.90
11047;DHT22;5576;50.008;10.596;2024-01-30T09:11:20;3.60;99.90
11047;DHT22;5576;50.008;10.596;2024-01-30T09:13:46;3.60;99.90
11047;DHT22;5576;50.008;10.596;2024-01-30T09:16:11;3.70;99.90
11047;DHT22;5576;50.008;10.596;2024-01-30T09:18:37;3.70;99.90
11047;DHT22;5576;50.008;10.596;2024-01-30T09:21:03;3.70;99.90
11047;DHT22;5576;50.008;10.596;2024-01-30T09:23:29;3.80;99.90
11047;DHT22;5576;50.008;10.596;2024-01-30T09:25:55;3.80;99.90
11047;DHT22;5576;50.008;10.596;2024-01-30T09:28:21;3.80;99.90
11047;DHT22;5576;50.008;10.596;2024-01-30T09:30:47;2.40;99.90
11047;DHT22;5576;50.008;10.596;2024-01-30T09:33:13;4.00;99.90
11047;DHT22;5576;50.008;10.596;2024-01-30T09:35:38;3.90;99.90
11047;DHT22;5576;50.008;10.596;2024-01-30T09:38:04;4.00;99.90
11047;DHT22;5576;50.008;10.596;2024-01-30T09:40:30;4.00;99.90
11047;DHT22;5576;50.008;10.596;2024-01-30T09:42:56;4.10;99.90
11047;DHT22;5576;50.008;10.596;2024-01-30T09:45:24;4.20;99.90
11047;DHT22;5576;50.008;10.596;2024-01-30T09:47:50;4.20;99.90
11047;DHT22;5576;50.008;10.596;2024-01-30T09:50:17;4.30;99.90
11047;DHT22;5576;50.008;10.596;2024-01-30T09:52:45;4.30;99.90
11047;DHT22;5576;50.008;10.596;2024-01-30T09:55:11;4.30;99.90
11047;DHT22;5576;50.008;10.596;2024-01-30T09:57:37;4.30;99.90
11047;DHT22;5576;50.008;10.596;2024-01-30T10:00:04;4.30;99.90
11047;DHT22;5576;50.008;10.596;2024-01-30T10:02:39;4.40;99.90
11047;DHT22;5576;50.008;10.596;2024-01-30T10:05:05;4.40;99.90
11047;DHT22;5576;50.008;10.596;2024-01-30T10:07:31;4.40;99.90
11047;DHT22;5576;50.008;10.596;2024-01-30T10:09:57;4.50;99.90
11047;DHT22;5576;50.008;10.596;2024-01-30T10:12:25;4.50;99.90
11047;DHT22;5576;50.008;10.596;2024-01-30T10:14:51;4.60;99.90
11047;DHT22;5576;50.008;10.596;2024-01-30T10:17:17;5.90;99.90
11047;DHT22;5576;50.008;10.596;2024-01-30T10:19:42;4.80;99.90
11047;DHT22;5576;50.008;10.596;2024-01-30T10:22:09;4.90;99.90
11047;DHT22;5576;50.008;10.596;2024-01-30T10:24:35;5.00;99.90
11047;DHT22;5576;50.008;10.596;2024-01-30T10:27:01;5.10;99.90
11047;DHT22;5576;50.008;10.596;2024-01-30T10:29:27;5.10;99.90
11047;DHT22;5576;50.008;10.596;2024-01-30T10:31:58;5.20;99.90
11047;DHT22;5576;50.008;10.596;2024-01-30T10:34:24;5.20;99.90
11047;DHT22;5576;50.008;10.596;2024-01-30T10:36:50;5.30;99.90
11047;DHT22;5576;50.008;10.596;2024-01-30T10:39:21;5.40;99.90
11047;DHT22;5576;50.008;10.596;2024-01-30T10:41:48;5.40;99.90
11047;DHT22;5576;50.008;10.596;2024-01-30T10:44:19;5.50;99.90
11047;DHT22;5576;50.008;10.596;2024-01-30T10:46:50;5.50;99.90
11047;DHT22;5576;50.008;10.596;2024-01-30T10:49:18;5.60;99.90
11047;DHT22;5576;50.008;10.596;2024-01-30T10:51:45;5.70;99.90
11047;DHT22;5576;50.008;10.596;2024-01-30T10:54:12;5.70;99.90
11047;DHT22;5576;50.008;10.596;2024-01-30T10:56:40;5.80;99.90
11047;DHT22;5576;50.008;10.596;2024-01-30T10:59:06;5.80;99.90
11047;DHT22;5576;50.008;10.596;2024-01-30T11:01:32;5.80;99.90
11047;DHT22;5576;50.008;10.596;2024-01-30T11:03:58;5.90;99.90
11047;DHT22;5576;50.008;10.596;2024-01-30T11:06:25;5.90;99.90
11047;DHT22;5576;50.008;10.596;2024-01-30T11:09:10;6.10;99.90
11047;DHT22;5576;50.008;10.596;2024-01-30T11:11:58;6.10;99.90
11047;DHT22;5576;50.008;10.596;2024-01-30T11:14:26;6.30;99.90
11047;DHT22;5576;50.008;10.596;2024-01-30T11:16:52;6.30;99.90
11047;DHT22;5576;50.008;10.596;2024-01-30T11:19:26;6.40;99.90
11047;DHT22;5576;50.008;10.596;2024-01-30T11:21:54;6.50;99.90
11047;DHT22;5576;50.008;10.596;2024-01-30T11:24:20;6.60;99.90
11047;DHT22;5576;50.008;10.596;2024-01-30T11:26:49;6.70;99.90
11047;DHT22;5576;50.008;10.596;2024-01-30T11:29:17;6.70;99.90
11047;DHT22;5576;50.008;10.596;2024-01-30T11:31:52;6.80;99.90
11047;DHT22;5576;50.008;10.596;2024-01-30T11:34:19;6.70;99.90
11047;DHT22;5576;50.008;10.596;2024-01-30T11:36:52;6.70;99.90
11047;DHT22;5576;50.008;10.596;2024-01-30T11:39:20;6.70;99.90
11047;DHT22;5576;50.008;10.596;2024-01-30T11:41:50;6.70;99.90
11047;DHT22;5576;50.008;10.596;2024-01-30T11:44:16;6.70;99.90
11047;DHT22;5576;50.008;10.596;2024-01-30T11:46:42;6.70;99.90
11047;DHT22;5576;50.008;10.596;2024-01-30T11:49:08;6.80;99.90
11047;DHT22;5576;50.008;10.596;2024-01-30T11:51:33;6.80;99.90
11047;DHT22;5576;50.008;10.596;2024-01-30T11:53:59;6.90;99.90
11047;DHT22;5576;50.008;10.596;2024-01-30T11:56:25;6.90;99.90
11047;DHT22;5576;50.008;10.596;2024-01-30T11:58:52;6.90;99.90
11047;DHT22;5576;50.008;10.596;2024-01-30T12:01:18;7.00;99.90
11047;DHT22;5576;50.008;10.596;2024-01-30T12:03:50;10.50;99.90
11047;DHT22;5576;50.008;10.596;2024-01-30T12:06:16;7.00;99.90
11047;DHT22;5576;50.008;10.596;2024-01-30T12:08:42;7.10;99.90
11047;DHT22;5576;50.008;10.596;2024-01-30T12:11:08;7.00;99.90
11047;DHT22;5576;50.008;10.596;2024-01-30T12:13:34;7.00;99.90
11047;DHT22;5576;50.008;10.596;2024-01-30T12:16:00;7.00;99.90
11047;DHT22;5576;50.008;10.596;2024-01-30T12:18:26;7.00;99.90
11047;DHT22;5576;50.008;10.596;2024-01-30T12:21:00;6.90;99.90
11047;DHT22;5576;50.008;10.596;2024-01-30T12:23:27;6.90;99.90
11047;DHT22;5576;50.008;10.596;2024-01-30T12:25:53;6.90;99.90
11047;DHT22;5576;50.008;10.596;2024-01-30T12:28:20;7.00;99.90
11047;DHT22;5576;50.008;10.596;2024-01-30T12:30:46;7.10;99.90
11047;DHT22;5576;50.008;10.596;2024-01-30T12:33:19;7.10;99.90
11047;DHT22;5576;50.008;10.596;2024-01-30T12:35:46;7.10;99.90
11047;DHT22;5576;50.008;10.596;2024-01-30T12:38:14;7.20;99.90
11047;DHT22;5576;50.008;10.596;2024-01-30T12:40:40;7.10;99.90
11047;DHT22;5576;50.008;10.596;2024-01-30T12:43:06;7.20;99.90
11047;DHT22;5576;50.008;10.596;2024-01-30T12:45:31;7.20;99.90
11047;DHT22;5576;50.008;10.596;2024-01-30T12:47:57;7.30;99.90
11047;DHT22;5576;50.008;10.596;2024-01-30T12:50:24;7.30;99.90
11047;DHT22;5576;50.008;10.596;2024-01-30T12:52:50;7.30;99.90
11047;DHT22;5576;50.008;10.596;2024-01-30T12:55:16;7.40;99.90
11047;DHT22;5576;50.008;10.596;2024-01-30T12:57:42;7.40;99.90
11047;DHT22;5576;50.008;10.596;2024-01-30T13:00:08;7.50;99.90
11047;DHT22;5576;50.008;10.596;2024-01-30T13:02:35;7.50;99.90
11047;DHT22;5576;50.008;10.596;2024-01-30T13:05:03;7.50;99.90
11047;DHT22;5576;50.008;10.596;2024-01-30T13:07:30;7.60;99.90
11047;DHT22;5576;50.008;10.596;2024-01-30T13:09:56;7.70;99.90
11047;DHT22;5576;50.008;10.596;2024-01-30T13:12:28;7.70;99.90
11047;DHT22;5576;50.008;10.596;2024-01-30T13:14:54;7.80;99.90
11047;DHT22;5576;50.008;10.596;2024-01-30T13:17:20;7.90;99.90
11047;DHT22;5576;50.008;10.596;2024-01-30T13:19:46;8.00;99.90
11047;DHT22;5576;50.008;10.596;2024-01-30T13:22:14;8.00;99.90
11047;DHT22;5576;50.008;10.596;2024-01-30T13:24:40;8.00;99.90
11047;DHT22;5576;50.008;10.596;2024-01-30T13:27:07;8.00;99.90
11047;DHT22;5576;50.008;10.596;2024-01-30T13:29:32;7.90;99.90
11047;DHT22;5576;50.008;10.596;2024-01-30T13:31:58;8.00;99.90
11047;DHT22;5576;50.008;10.596;2024-01-30T13:34:24;8.00;99.90
11047;DHT22;5576;50.008;10.596;2024-01-30T13:36:50;7.90;99.90
11047;DHT22;5576;50.008;10.596;2024-01-30T13:39:16;7.90;99.90
11047;DHT22;5576;50.008;10.596;2024-01-30T13:41:42;7.90;99.90
11047;DHT22;5576;50.008;10.596;2024-01-30T13:44:08;7.90;99.90
11047;DHT22;5576;50.008;10.596;2024-01-30T13:46:35;7.90;99.90
11047;DHT22;5576;50.008;10.596;2024-01-30T13:49:01;7.90;99.90
11047;DHT22;5576;50.008;10.596;2024-01-30T13:51:28;8.00;99.90
11047;DHT22;5576;50.008;10.596;2024-01-30T13:53:53;8.00;99.90
11047;DHT22;5576;50.008;10.596;2024-01-30T13:56:20;8.00;99.90
11047;DHT22;5576;50.008;10.596;2024-01-30T13:58:48;8.00;99.90
11047;DHT22;5576;50.008;10.596;2024-01-30T14:01:15;8.00;99.90
11047;DHT22;5576;50.008;10.596;2024-01-30T14:03:41;5.50;99.90
11047;DHT22;5576;50.008;10.596;2024-01-30T14:06:07;8.50;99.90
11047;DHT22;5576;50.008;10.596;2024-01-30T14:08:33;7.90;99.90
11047;DHT22;5576;50.008;10.596;2024-01-30T14:10:58;7.90;99.90
11047;DHT22;5576;50.008;10.596;2024-01-30T14:13:24;7.90;99.90
11047;DHT22;5576;50.008;10.596;2024-01-30T14:15:51;7.90;99.90
11047;DHT22;5576;50.008;10.596;2024-01-30T14:18:18;8.00;99.90
11047;DHT22;5576;50.008;10.596;2024-01-30T14:20:43;7.90;99.90
11047;DHT22;5576;50.008;10.596;2024-01-30T14:23:09;7.80;99.90
11047;DHT22;5576;50.008;10.596;2024-01-30T14:25:35;7.80;99.90
11047;DHT22;5576;50.008;10.596;2024-01-30T14:28:01;7.70;99.90
11047;DHT22;5576;50.008;10.596;2024-01-30T14:30:26;7.70;99.90
11047;DHT22;5576;50.008;10.596;2024-01-30T14:32:52;7.80;99.90
11047;DHT22;5576;50.008;10.596;2024-01-30T14:35:18;7.80;99.90
11047;DHT22;5576;50.008;10.596;2024-01-30T14:37:45;7.60;99.90
11047;DHT22;5576;50.008;10.596;2024-01-30T14:40:11;7.60;99.90
11047;DHT22;5576;50.008;10.596;2024-01-30T14:42:37;5.90;99.90
11047;DHT22;5576;50.008;10.596;2024-01-30T14:45:04;7.50;99.90
11047;DHT22;5576;50.008;10.596;2024-01-30T14:47:29;7.40;99.90
11047;DHT22;5576;50.008;10.596;2024-01-30T14:49:57;7.40;99.90
11047;DHT22;5576;50.008;10.596;2024-01-30T14:52:23;7.50;99.90
11047;DHT22;5576;50.008;10.596;2024-01-30T14:54:49;6.40;99.90
11047;DHT22;5576;50.008;10.596;2024-01-30T14:57:14;7.50;99.90
11047;DHT22;5576;50.008;10.596;2024-01-30T14:59:40;7.50;99.90
11047;DHT22;5576;50.008;10.596;2024-01-30T15:02:06;7.50;99.90
11047;DHT22;5576;50.008;10.596;2024-01-30T15:04:33;7.30;99.90
11047;DHT22;5576;50.008;10.596;2024-01-30T15:06:58;7.60;99.90
11047;DHT22;5576;50.008;10.596;2024-01-30T15:09:24;7.50;99.90
11047;DHT22;5576;50.008;10.596;2024-01-30T15:11:51;7.50;99.90
11047;DHT22;5576;50.008;10.596;2024-01-30T15:14:17;10.00;99.90
11047;DHT22;5576;50.008;10.596;2024-01-30T15:19:09;7.30;99.90
11047;DHT22;5576;50.008;10.596;2024-01-30T15:21:35;10.50;99.90
11047;DHT22;5576;50.008;10.596;2024-01-30T15:24:02;7.40;99.90
11047;DHT22;5576;50.008;10.596;2024-01-30T15:26:28;6.60;99.90
11047;DHT22;5576;50.008;10.596;2024-01-30T15:28:54;7.40;99.90
11047;DHT22;5576;50.008;10.596;2024-01-30T15:31:20;7.40;99.90
11047;DHT22;5576;50.008;10.596;2024-01-30T15:33:46;7.40;99.90
11047;DHT22;5576;50.008;10.596;2024-01-30T15:36:12;7.40;99.90
11047;DHT22;5576;50.008;10.596;2024-01-30T15:38:39;7.40;99.90
11047;DHT22;5576;50.008;10.596;2024-01-30T15:41:05;7.40;99.90
11047;DHT22;5576;50.008;10.596;2024-01-30T15:43:30;7.30;99.90
11047;DHT22;5576;50.008;10.596;2024-01-30T15:45:58;7.10;99.90
11047;DHT22;5576;50.008;10.596;2024-01-30T15:48:25;7.30;99.90
11047;DHT22;5576;50.008;10.596;2024-01-30T15:50:51;7.30;99.90
11047;DHT22;5576;50.008;10.596;2024-01-30T15:53:19;7.40;99.90
11047;DHT22;5576;50.008;10.596;2024-01-30T15:55:45;7.30;99.90
11047;DHT22;5576;50.008;10.596;2024-01-30T15:58:10;7.40;99.90
11047;DHT22;5576;50.008;10.596;2024-01-30T16:00:36;7.30;99.90
11047;DHT22;5576;50.008;10.596;2024-01-30T16:03:02;7.30;99.90
11047;DHT22;5576;50.008;10.596;2024-01-30T16:05:28;7.30;99.90
11047;DHT22;5576;50.008;10.596;2024-01-30T16:07:53;7.30;99.90
11047;DHT22;5576;50.008;10.596;2024-01-30T16:10:19;7.30;99.90
11047;DHT22;5576;50.008;10.596;2024-01-30T16:12:45;7.30;99.90
11047;DHT22;5576;50.008;10.596;2024-01-30T16:15:13;7.30;99.90
11047;DHT22;5576;50.008;10.596;2024-01-30T16:17:39;7.30;99.90
11047;DHT22;5576;50.008;10.596;2024-01-30T16:20:06;7.20;99.90
11047;DHT22;5576;50.008;10.596;2024-01-30T16:22:33;6.10;99.90
11047;DHT22;5576;50.008;10.596;2024-01-30T16:24:59;7.10;99.90
11047;DHT22;5576;50.008;10.596;2024-01-30T16:27:25;7.10;99.90
11047;DHT22;5576;50.008;10.596;2024-01-30T16:29:50;7.20;99.90
11047;DHT22;5576;50.008;10.596;2024-01-30T16:32:16;7.00;99.90
11047;DHT22;5576;50.008;10.596;2024-01-30T16:34:42;6.90;99.90
11047;DHT22;5576;50.008;10.596;2024-01-30T16:37:10;6.90;99.90
11047;DHT22;5576;50.008;10.596;2024-01-30T16:39:36;6.90;99.90
11047;DHT22;5576;50.008;10.596;2024-01-30T16:42:02;6.80;99.90
11047;DHT22;5576;50.008;10.596;2024-01-30T16:44:28;5.90;99.90
11047;DHT22;5576;50.008;10.596;2024-01-30T16:46:54;6.80;99.90
11047;DHT22;5576;50.008;10.596;2024-01-30T16:49:20;6.80;99.90
11047;DHT22;5576;50.008;10.596;2024-01-30T16:51:46;6.90;99.90
11047;DHT22;5576;50.008;10.596;2024-01-30T16:54:12;6.90;99.90
11047;DHT22;5576;50.008;10.596;2024-01-30T16:56:37;6.80;99.90
11047;DHT22;5576;50.008;10.596;2024-01-30T16:59:03;6.90;99.90
11047;DHT22;5576;50.008;10.596;2024-01-30T17:01:29;6.90;99.90
11047;DHT22;5576;50.008;10.596;2024-01-30T17:03:55;5.90;99.90
11047;DHT22;5576;50.008;10.596;2024-01-30T17:06:21;6.90;99.90
11047;DHT22;5576;50.008;10.596;2024-01-30T17:08:46;6.90;99.90
11047;DHT22;5576;50.008;10.596;2024-01-30T17:11:12;5.30;99.90
11047;DHT22;5576;50.008;10.596;2024-01-30T17:13:38;9.50;99.90
11047;DHT22;5576;50.008;10.596;2024-01-30T17:16:04;6.60;99.90
11047;DHT22;5576;50.008;10.596;2024-01-30T17:18:30;6.70;99.90
11047;DHT22;5576;50.008;10.596;2024-01-30T17:20:56;6.70;99.90
11047;DHT22;5576;50.008;10.596;2024-01-30T17:23:22;6.80;99.90
11047;DHT22;5576;50.008;10.596;2024-01-30T17:25:49;6.80;99.90